createdAt,value
2018-05-14T00:00:19.461Z,0
2018-05-14T00:01:28.326Z,0
2018-05-14T00:02:37.551Z,0
2018-05-14T00:03:46.416Z,0
2018-05-14T00:04:55.275Z,0
2018-05-14T00:06:04.139Z,0
2018-05-14T00:07:12.998Z,0
2018-05-14T00:08:21.859Z,0
2018-05-14T00:09:30.725Z,0
2018-05-14T00:10:39.862Z,0
2018-05-14T00:11:48.772Z,0
2018-05-14T00:12:57.634Z,0
2018-05-14T00:14:06.497Z,0
2018-05-14T00:15:15.357Z,0
2018-05-14T00:16:24.221Z,0
2018-05-14T00:17:33.514Z,0
2018-05-14T00:18:42.374Z,0
2018-05-14T00:19:51.243Z,0
2018-05-14T00:21:00.381Z,0
2018-05-14T00:22:09.241Z,0
2018-05-14T00:23:18.253Z,0
2018-05-14T00:24:27.111Z,0
2018-05-14T00:25:35.972Z,0
2018-05-14T00:26:45.118Z,0
2018-05-14T00:27:53.980Z,0
2018-05-14T00:29:02.839Z,0
2018-05-14T00:30:11.700Z,0
2018-05-14T00:31:20.564Z,0
2018-05-14T00:32:29.708Z,0
2018-05-14T00:33:38.574Z,0
2018-05-14T00:34:47.533Z,0
2018-05-14T00:35:56.393Z,0
2018-05-14T00:37:05.316Z,0
2018-05-14T00:38:14.187Z,0
2018-05-14T00:39:23.040Z,0
2018-05-14T00:40:31.899Z,0
2018-05-14T00:41:40.764Z,0
2018-05-14T00:42:49.908Z,0
2018-05-14T00:43:58.769Z,0
2018-05-14T00:45:07.635Z,0
2018-05-14T00:46:16.828Z,0
2018-05-14T00:47:25.692Z,0
2018-05-14T00:48:34.832Z,0
2018-05-14T00:49:43.692Z,0
2018-05-14T00:50:52.553Z,0
2018-05-14T00:52:01.690Z,0
2018-05-14T00:53:10.827Z,0
2018-05-14T00:54:19.964Z,0
2018-05-14T00:55:28.823Z,0
2018-05-14T00:56:37.689Z,0
2018-05-14T00:57:46.660Z,0
2018-05-14T00:58:55.806Z,0
2018-05-14T01:00:04.666Z,0
2018-05-14T01:01:13.528Z,0
2018-05-14T01:02:22.384Z,0
2018-05-14T01:03:31.297Z,0
2018-05-14T01:04:40.437Z,0
2018-05-14T01:05:49.574Z,0
2018-05-14T01:06:58.431Z,0
2018-05-14T01:08:07.295Z,0
2018-05-14T01:09:16.789Z,0
2018-05-14T01:10:25.932Z,0
2018-05-14T01:11:35.073Z,0
2018-05-14T01:12:43.936Z,0
2018-05-14T01:13:53.073Z,0
2018-05-14T01:15:02.084Z,0
2018-05-14T01:16:10.946Z,0
2018-05-14T01:17:19.808Z,0
2018-05-14T01:18:28.947Z,0
2018-05-14T01:19:37.807Z,0
2018-05-14T01:20:46.720Z,0
2018-05-14T01:21:55.580Z,0
2018-05-14T01:23:04.440Z,0
2018-05-14T01:24:13.300Z,0
2018-05-14T01:25:22.439Z,0
2018-05-14T01:26:31.549Z,0
2018-05-14T01:27:40.410Z,0
2018-05-14T01:28:49.272Z,0
2018-05-14T01:29:58.414Z,0
2018-05-14T01:31:07.552Z,0
2018-05-14T01:32:16.411Z,0
2018-05-14T01:33:25.269Z,0
2018-05-14T01:34:34.131Z,0
2018-05-14T01:35:42.994Z,0
2018-05-14T01:36:51.851Z,0
2018-05-14T01:38:00.761Z,0
2018-05-14T01:39:09.897Z,0
2018-05-14T01:40:18.761Z,0
2018-05-14T01:41:28.187Z,0
2018-05-14T01:42:37.045Z,0
2018-05-14T01:43:46.256Z,0
2018-05-14T01:44:55.118Z,0
2018-05-14T01:46:03.982Z,0
2018-05-14T01:47:12.838Z,0
2018-05-14T01:48:21.696Z,0
2018-05-14T01:49:30.806Z,0
2018-05-14T01:50:39.671Z,0
2018-05-14T01:51:48.526Z,0
2018-05-14T01:52:57.390Z,0
2018-05-14T01:54:06.248Z,0
2018-05-14T01:55:15.261Z,0
2018-05-14T01:56:24.406Z,0
2018-05-14T01:57:33.270Z,0
2018-05-14T01:58:42.130Z,0
2018-05-14T01:59:50.989Z,0
2018-05-14T02:01:00.278Z,0
2018-05-14T02:02:09.420Z,0
2018-05-14T02:03:18.279Z,0
2018-05-14T02:04:27.139Z,0
2018-05-14T02:05:36.004Z,0
2018-05-14T02:06:45.216Z,0
2018-05-14T02:07:54.078Z,0
2018-05-14T02:09:03.214Z,0
2018-05-14T02:10:12.353Z,0
2018-05-14T02:11:21.785Z,0
2018-05-14T02:12:30.994Z,0
2018-05-14T02:13:40.135Z,0
2018-05-14T02:14:49.271Z,0
2018-05-14T02:15:58.127Z,0
2018-05-14T02:17:07.264Z,0
2018-05-14T02:18:16.211Z,0
2018-05-14T02:19:25.033Z,0
2018-05-14T02:20:34.175Z,0
2018-05-14T02:21:43.042Z,0
2018-05-14T02:22:51.903Z,0
2018-05-14T02:24:01.047Z,0
2018-05-14T02:25:10.187Z,0
2018-05-14T02:26:19.048Z,0
2018-05-14T02:27:27.905Z,0
2018-05-14T02:28:36.767Z,0
2018-05-14T02:29:45.689Z,0
2018-05-14T02:30:55.093Z,0
2018-05-14T02:32:03.955Z,0
2018-05-14T02:33:12.820Z,0
2018-05-14T02:34:21.963Z,0
2018-05-14T02:35:31.254Z,0
2018-05-14T02:36:40.118Z,0
2018-05-14T02:37:49.544Z,0
2018-05-14T02:38:58.405Z,0
2018-05-14T02:40:07.270Z,0
2018-05-14T02:41:16.412Z,0
2018-05-14T02:42:25.548Z,0
2018-05-14T02:43:34.411Z,0
2018-05-14T02:44:43.551Z,0
2018-05-14T02:45:52.692Z,0
2018-05-14T02:47:01.557Z,0
2018-05-14T02:48:10.417Z,0
2018-05-14T02:49:19.830Z,0
2018-05-14T02:50:28.690Z,0
2018-05-14T02:51:37.552Z,0
2018-05-14T02:52:47.129Z,0
2018-05-14T02:53:55.994Z,0
2018-05-14T02:55:04.855Z,0
2018-05-14T02:56:13.993Z,0
2018-05-14T02:57:22.863Z,0
2018-05-14T02:58:32.332Z,0
2018-05-14T02:59:42.031Z,0
2018-05-14T03:00:50.891Z,0
2018-05-14T03:01:59.754Z,0
2018-05-14T03:03:08.617Z,0
2018-05-14T03:04:18.007Z,0
2018-05-14T03:05:27.146Z,0
2018-05-14T03:06:36.292Z,0
2018-05-14T03:07:45.433Z,0
2018-05-14T03:08:54.300Z,0
2018-05-14T03:10:03.720Z,0
2018-05-14T03:11:12.864Z,0
2018-05-14T03:12:21.723Z,0
2018-05-14T03:13:30.581Z,0
2018-05-14T03:14:39.444Z,0
2018-05-14T03:15:48.464Z,0
2018-05-14T03:16:57.323Z,0
2018-05-14T03:18:06.182Z,0
2018-05-14T03:19:15.044Z,0
2018-05-14T03:20:23.902Z,0
2018-05-14T03:21:33.012Z,5
2018-05-14T03:22:41.868Z,5
2018-05-14T03:23:50.728Z,5
2018-05-14T03:24:59.587Z,5
2018-05-14T03:26:08.447Z,5
2018-05-14T03:27:17.540Z,5
2018-05-14T03:28:26.318Z,5
2018-05-14T03:29:35.178Z,10
2018-05-14T03:30:44.321Z,10
2018-05-14T03:31:53.472Z,10
2018-05-14T03:33:02.684Z,10
2018-05-14T03:34:11.546Z,10
2018-05-14T03:35:20.403Z,15
2018-05-14T03:36:29.262Z,15
2018-05-14T03:37:38.121Z,15
2018-05-14T03:38:47.033Z,15
2018-05-14T03:39:56.169Z,15
2018-05-14T03:41:05.028Z,20
2018-05-14T03:42:13.888Z,20
2018-05-14T03:43:23.021Z,20
2018-05-14T03:44:31.882Z,20
2018-05-14T03:45:40.748Z,25
2018-05-14T03:46:49.608Z,25
2018-05-14T03:47:58.467Z,25
2018-05-14T03:49:07.610Z,30
2018-05-14T03:50:16.849Z,30
2018-05-14T03:51:25.713Z,30
2018-05-14T03:52:34.568Z,35
2018-05-14T03:53:43.427Z,35
2018-05-14T03:54:52.289Z,35
2018-05-14T03:56:01.199Z,40
2018-05-14T03:57:10.058Z,40
2018-05-14T03:58:19.194Z,40
2018-05-14T03:59:28.626Z,45
2018-05-14T04:00:37.486Z,45
2018-05-14T04:01:46.697Z,45
2018-05-14T04:02:55.837Z,50
2018-05-14T04:04:04.700Z,50
2018-05-14T04:05:13.560Z,50
2018-05-14T04:06:22.976Z,55
2018-05-14T04:07:31.835Z,55
2018-05-14T04:08:40.983Z,55
2018-05-14T04:09:49.840Z,60
2018-05-14T04:10:58.699Z,60
2018-05-14T04:12:07.558Z,60
2018-05-14T04:13:17.146Z,65
2018-05-14T04:14:26.006Z,65
2018-05-14T04:15:34.867Z,65
2018-05-14T04:16:44.051Z,65
2018-05-14T04:17:52.911Z,70
2018-05-14T04:19:01.869Z,70
2018-05-14T04:20:11.007Z,70
2018-05-14T04:21:19.868Z,75
2018-05-14T04:22:28.728Z,75
2018-05-14T04:23:37.589Z,75
2018-05-14T04:24:46.447Z,75
2018-05-14T04:25:55.310Z,80
2018-05-14T04:27:04.171Z,80
2018-05-14T04:28:13.031Z,80
2018-05-14T04:29:21.893Z,85
2018-05-14T04:30:30.758Z,85
2018-05-14T04:31:39.898Z,85
2018-05-14T04:32:48.758Z,85
2018-05-14T04:33:57.900Z,90
2018-05-14T04:35:07.041Z,90
2018-05-14T04:36:16.059Z,90
2018-05-14T04:37:24.917Z,90
2018-05-14T04:38:34.060Z,95
2018-05-14T04:39:42.922Z,95
2018-05-14T04:40:51.781Z,95
2018-05-14T04:42:00.691Z,95
2018-05-14T04:43:09.552Z,95
2018-05-14T04:44:18.417Z,100
2018-05-14T04:45:27.553Z,100
2018-05-14T04:46:36.417Z,100
2018-05-14T04:47:45.426Z,100
2018-05-14T04:48:54.297Z,105
2018-05-14T04:50:03.194Z,105
2018-05-14T04:51:12.056Z,105
2018-05-14T04:52:20.915Z,105
2018-05-14T04:53:29.929Z,105
2018-05-14T04:54:39.070Z,105
2018-05-14T04:55:47.930Z,105
2018-05-14T04:56:56.790Z,105
2018-05-14T04:58:05.933Z,105
2018-05-14T04:59:15.300Z,105
2018-05-14T05:00:24.087Z,110
2018-05-14T05:01:33.221Z,110
2018-05-14T05:02:42.080Z,110
2018-05-14T05:03:50.940Z,110
2018-05-14T05:05:00.431Z,110
2018-05-14T05:06:09.292Z,110
2018-05-14T05:07:18.153Z,115
2018-05-14T05:08:27.014Z,115
2018-05-14T05:09:35.875Z,115
2018-05-14T05:10:44.887Z,115
2018-05-14T05:11:53.748Z,115
2018-05-14T05:13:02.611Z,115
2018-05-14T05:14:11.468Z,120
2018-05-14T05:15:20.608Z,120
2018-05-14T05:16:30.098Z,120
2018-05-14T05:17:38.961Z,120
2018-05-14T05:18:47.823Z,120
2018-05-14T05:19:56.689Z,125
2018-05-14T05:21:05.831Z,125
2018-05-14T05:22:15.018Z,125
2018-05-14T05:23:23.881Z,125
2018-05-14T05:24:32.744Z,125
2018-05-14T05:25:41.603Z,125
2018-05-14T05:26:50.741Z,125
2018-05-14T05:27:59.755Z,130
2018-05-14T05:29:08.614Z,130
2018-05-14T05:30:17.765Z,130
2018-05-14T05:31:26.908Z,130
2018-05-14T05:32:36.622Z,130
2018-05-14T05:33:45.632Z,135
2018-05-14T05:34:55.067Z,130
2018-05-14T05:36:03.930Z,135
2018-05-14T05:37:12.791Z,135
2018-05-14T05:38:21.651Z,135
2018-05-14T05:39:30.954Z,135
2018-05-14T05:40:39.811Z,135
2018-05-14T05:41:48.673Z,135
2018-05-14T05:42:57.541Z,135
2018-05-14T05:44:06.682Z,135
2018-05-14T05:45:16.044Z,140
2018-05-14T05:46:25.269Z,140
2018-05-14T05:47:34.128Z,140
2018-05-14T05:48:42.993Z,140
2018-05-14T05:49:51.857Z,140
2018-05-14T05:51:00.767Z,140
2018-05-14T05:52:09.903Z,140
2018-05-14T05:53:19.043Z,140
2018-05-14T05:54:27.907Z,140
2018-05-14T05:55:36.770Z,145
2018-05-14T05:56:46.058Z,145
2018-05-14T05:57:55.246Z,145
2018-05-14T05:59:04.108Z,145
2018-05-14T06:00:12.970Z,145
2018-05-14T06:01:21.905Z,145
2018-05-14T06:02:30.840Z,145
2018-05-14T06:03:39.702Z,145
2018-05-14T06:04:49.131Z,145
2018-05-14T06:05:58.268Z,145
2018-05-14T06:07:07.411Z,145
2018-05-14T06:08:16.911Z,150
2018-05-14T06:09:25.907Z,150
2018-05-14T06:10:34.633Z,150
2018-05-14T06:11:43.499Z,150
2018-05-14T06:12:52.363Z,150
2018-05-14T06:14:01.389Z,150
2018-05-14T06:15:10.259Z,150
2018-05-14T06:16:19.675Z,150
2018-05-14T06:17:28.822Z,150
2018-05-14T06:18:37.676Z,150
2018-05-14T06:19:46.886Z,150
2018-05-14T06:20:55.750Z,150
2018-05-14T06:22:04.897Z,155
2018-05-14T06:23:14.041Z,155
2018-05-14T06:24:22.901Z,155
2018-05-14T06:25:31.915Z,155
2018-05-14T06:26:40.775Z,155
2018-05-14T06:27:50.488Z,155
2018-05-14T06:28:59.340Z,155
2018-05-14T06:30:08.481Z,155
2018-05-14T06:31:17.642Z,155
2018-05-14T06:32:26.864Z,155
2018-05-14T06:33:35.640Z,155
2018-05-14T06:34:44.506Z,155
2018-05-14T06:35:53.419Z,160
2018-05-14T06:37:02.331Z,160
2018-05-14T06:38:11.475Z,160
2018-05-14T06:39:21.172Z,160
2018-05-14T06:40:30.036Z,160
2018-05-14T06:41:39.463Z,160
2018-05-14T06:42:48.474Z,160
2018-05-14T06:43:57.337Z,160
2018-05-14T06:45:06.477Z,160
2018-05-14T06:46:15.340Z,160
2018-05-14T06:47:24.203Z,160
2018-05-14T06:48:33.343Z,160
2018-05-14T06:49:42.230Z,160
2018-05-14T06:50:51.066Z,165
2018-05-14T06:52:00.209Z,165
2018-05-14T06:53:09.634Z,165
2018-05-14T06:54:18.826Z,165
2018-05-14T06:55:27.792Z,165
2018-05-14T06:56:37.123Z,165
2018-05-14T06:57:45.978Z,165
2018-05-14T06:58:54.889Z,165
2018-05-14T07:00:03.800Z,165
2018-05-14T07:01:13.218Z,165
2018-05-14T07:02:22.081Z,165
2018-05-14T07:03:31.218Z,160
2018-05-14T07:04:40.085Z,160
2018-05-14T07:05:48.994Z,165
2018-05-14T07:06:57.859Z,165
2018-05-14T07:08:06.721Z,165
2018-05-14T07:09:15.585Z,165
2018-05-14T07:10:24.721Z,165
2018-05-14T07:11:34.193Z,165
2018-05-14T07:12:42.970Z,170
2018-05-14T07:13:52.112Z,165
2018-05-14T07:15:00.975Z,170
2018-05-14T07:16:09.837Z,165
2018-05-14T07:17:18.752Z,165
2018-05-14T07:18:27.613Z,170
2018-05-14T07:19:36.476Z,170
2018-05-14T07:20:45.337Z,170
2018-05-14T07:21:54.202Z,170
2018-05-14T07:23:03.593Z,170
2018-05-14T07:24:12.456Z,170
2018-05-14T07:25:21.597Z,170
2018-05-14T07:26:30.740Z,170
2018-05-14T07:27:39.606Z,170
2018-05-14T07:28:48.896Z,170
2018-05-14T07:29:58.036Z,170
2018-05-14T07:31:06.898Z,175
2018-05-14T07:32:15.760Z,175
2018-05-14T07:33:24.623Z,175
2018-05-14T07:34:33.837Z,175
2018-05-14T07:35:42.699Z,175
2018-05-14T07:36:51.844Z,175
2018-05-14T07:38:00.702Z,175
2018-05-14T07:39:09.852Z,175
2018-05-14T07:40:18.963Z,175
2018-05-14T07:41:27.826Z,175
2018-05-14T07:42:36.692Z,175
2018-05-14T07:43:45.552Z,175
2018-05-14T07:44:54.416Z,180
2018-05-14T07:46:04.015Z,180
2018-05-14T07:47:12.818Z,180
2018-05-14T07:48:21.684Z,180
2018-05-14T07:49:30.545Z,180
2018-05-14T07:50:39.685Z,180
2018-05-14T07:51:48.927Z,180
2018-05-14T07:52:57.790Z,180
2018-05-14T07:54:06.933Z,180
2018-05-14T07:55:15.799Z,180
2018-05-14T07:56:24.659Z,180
2018-05-14T07:57:33.571Z,180
2018-05-14T07:58:42.437Z,180
2018-05-14T07:59:51.580Z,185
2018-05-14T08:01:00.443Z,185
2018-05-14T08:02:09.584Z,185
2018-05-14T08:03:18.447Z,185
2018-05-14T08:04:27.593Z,185
2018-05-14T08:05:36.573Z,185
2018-05-14T08:06:45.333Z,185
2018-05-14T08:07:54.195Z,180
2018-05-14T08:09:03.111Z,180
2018-05-14T08:10:11.973Z,180
2018-05-14T08:11:21.389Z,180
2018-05-14T08:12:30.537Z,180
2018-05-14T08:13:39.399Z,180
2018-05-14T08:14:48.692Z,185
2018-05-14T08:15:57.833Z,185
2018-05-14T08:17:06.697Z,185
2018-05-14T08:18:15.566Z,185
2018-05-14T08:19:24.430Z,185
2018-05-14T08:20:33.647Z,185
2018-05-14T08:21:42.791Z,185
2018-05-14T08:22:51.652Z,185
2018-05-14T08:24:00.516Z,185
2018-05-14T08:25:09.660Z,185
2018-05-14T08:26:19.253Z,185
2018-05-14T08:27:28.398Z,185
2018-05-14T08:28:37.262Z,190
2018-05-14T08:29:46.404Z,190
2018-05-14T08:30:55.269Z,190
2018-05-14T08:32:04.284Z,190
2018-05-14T08:33:13.144Z,190
2018-05-14T08:34:22.012Z,190
2018-05-14T08:35:30.875Z,190
2018-05-14T08:36:39.738Z,190
2018-05-14T08:37:48.761Z,190
2018-05-14T08:38:57.900Z,195
2018-05-14T08:40:06.761Z,195
2018-05-14T08:41:15.629Z,195
2018-05-14T08:42:24.871Z,195
2018-05-14T08:43:34.250Z,195
2018-05-14T08:44:43.113Z,195
2018-05-14T08:45:51.978Z,195
2018-05-14T08:47:01.121Z,195
2018-05-14T08:48:09.986Z,195
2018-05-14T08:49:18.899Z,200
2018-05-14T08:50:27.764Z,200
2018-05-14T08:51:36.628Z,200
2018-05-14T08:52:45.666Z,200
2018-05-14T08:53:54.363Z,200
2018-05-14T08:55:03.481Z,200
2018-05-14T08:56:12.349Z,200
2018-05-14T08:57:21.217Z,200
2018-05-14T08:58:30.354Z,200
2018-05-14T08:59:39.501Z,200
2018-05-14T09:00:49.057Z,200
2018-05-14T09:01:58.239Z,205
2018-05-14T09:03:07.380Z,205
2018-05-14T09:04:16.529Z,205
2018-05-14T09:05:25.394Z,205
2018-05-14T09:06:34.691Z,205
2018-05-14T09:07:43.845Z,210
2018-05-14T09:08:53.095Z,205
2018-05-14T09:10:01.974Z,205
2018-05-14T09:11:11.116Z,205
2018-05-14T09:12:20.231Z,205
2018-05-14T09:13:29.370Z,205
2018-05-14T09:14:38.233Z,205
2018-05-14T09:15:47.097Z,205
2018-05-14T09:16:56.239Z,205
2018-05-14T09:18:05.204Z,205
2018-05-14T09:19:14.358Z,205
2018-05-14T09:20:23.490Z,210
2018-05-14T09:21:32.354Z,210
2018-05-14T09:22:41.779Z,210
2018-05-14T09:23:50.697Z,210
2018-05-14T09:24:59.564Z,215
2018-05-14T09:26:08.709Z,210
2018-05-14T09:27:17.577Z,215
2018-05-14T09:28:26.439Z,210
2018-05-14T09:29:35.405Z,215
2018-05-14T09:30:44.551Z,215
2018-05-14T09:31:53.696Z,215
2018-05-14T09:33:02.559Z,215
2018-05-14T09:34:11.423Z,215
2018-05-14T09:35:20.390Z,220
2018-05-14T09:36:29.535Z,215
2018-05-14T09:37:38.399Z,220
2018-05-14T09:38:47.264Z,220
2018-05-14T09:39:56.130Z,220
2018-05-14T09:41:05.621Z,220
2018-05-14T09:42:14.487Z,220
2018-05-14T09:43:23.642Z,220
2018-05-14T09:44:32.789Z,220
2018-05-14T09:45:41.649Z,225
2018-05-14T09:46:50.866Z,225
2018-05-14T09:47:59.735Z,225
2018-05-14T09:49:09.272Z,225
2018-05-14T09:50:18.021Z,230
2018-05-14T09:51:26.885Z,230
2018-05-14T09:52:35.850Z,230
2018-05-14T09:53:44.716Z,230
2018-05-14T09:54:53.590Z,235
2018-05-14T09:56:02.736Z,235
2018-05-14T09:57:11.669Z,235
2018-05-14T09:58:20.514Z,235
2018-05-14T09:59:29.381Z,235
2018-05-14T10:00:38.249Z,235
2018-05-14T10:01:47.393Z,235
2018-05-14T10:02:56.258Z,240
2018-05-14T10:04:05.127Z,240
2018-05-14T10:05:13.993Z,240
2018-05-14T10:06:22.867Z,240
2018-05-14T10:07:31.732Z,240
2018-05-14T10:08:40.873Z,240
2018-05-14T10:09:50.405Z,240
2018-05-14T10:10:59.275Z,245
2018-05-14T10:12:08.411Z,250
2018-05-14T10:13:17.559Z,245
2018-05-14T10:14:26.708Z,250
2018-05-14T10:15:35.623Z,250
2018-05-14T10:16:44.489Z,250
2018-05-14T10:17:53.354Z,255
2018-05-14T10:19:02.224Z,250
2018-05-14T10:20:11.091Z,250
2018-05-14T10:21:19.955Z,250
2018-05-14T10:22:28.821Z,255
2018-05-14T10:23:37.688Z,255
2018-05-14T10:24:46.664Z,255
2018-05-14T10:25:56.137Z,260
2018-05-14T10:27:05.056Z,270
2018-05-14T10:28:13.925Z,265
2018-05-14T10:29:23.071Z,265
2018-05-14T10:30:31.933Z,265
2018-05-14T10:31:40.800Z,265
2018-05-14T10:32:49.717Z,270
2018-05-14T10:33:58.584Z,270
2018-05-14T10:35:07.452Z,270
2018-05-14T10:36:16.881Z,270
2018-05-14T10:37:25.750Z,270
2018-05-14T10:38:34.616Z,270
2018-05-14T10:39:43.481Z,265
2018-05-14T10:40:52.825Z,265
2018-05-14T10:42:01.692Z,265
2018-05-14T10:43:10.682Z,260
2018-05-14T10:44:19.822Z,265
2018-05-14T10:45:28.964Z,270
2018-05-14T10:46:38.115Z,275
2018-05-14T10:47:46.977Z,280
2018-05-14T10:48:55.933Z,280
2018-05-14T10:50:05.002Z,275
2018-05-14T10:51:13.873Z,280
2018-05-14T10:52:22.736Z,275
2018-05-14T10:53:31.882Z,270
2018-05-14T10:54:40.749Z,275
2018-05-14T10:55:49.867Z,275
2018-05-14T10:56:59.013Z,275
2018-05-14T10:58:07.892Z,280
2018-05-14T10:59:16.757Z,280
2018-05-14T11:00:25.627Z,285
2018-05-14T11:01:34.821Z,275
2018-05-14T11:02:43.971Z,285
2018-05-14T11:03:53.121Z,290
2018-05-14T11:05:01.980Z,295
2018-05-14T11:06:10.849Z,290
2018-05-14T11:07:20.143Z,290
2018-05-14T11:08:29.010Z,290
2018-05-14T11:09:37.877Z,290
2018-05-14T11:10:46.746Z,285
2018-05-14T11:11:55.893Z,290
2018-05-14T11:13:04.807Z,290
2018-05-14T11:14:13.672Z,290
2018-05-14T11:15:22.543Z,295
2018-05-14T11:16:31.698Z,300
2018-05-14T11:17:40.839Z,300
2018-05-14T11:18:49.815Z,300
2018-05-14T11:19:58.903Z,300
2018-05-14T11:21:07.772Z,300
2018-05-14T11:22:16.644Z,300
2018-05-14T11:23:25.787Z,305
2018-05-14T11:24:34.654Z,310
2018-05-14T11:25:43.524Z,315
2018-05-14T11:26:52.388Z,320
2018-05-14T11:28:01.254Z,330
2018-05-14T11:29:10.123Z,330
2018-05-14T11:30:19.050Z,335
2018-05-14T11:31:27.909Z,330
2018-05-14T11:32:36.772Z,325
2018-05-14T11:33:45.639Z,320
2018-05-14T11:34:54.515Z,320
2018-05-14T11:36:03.532Z,325
2018-05-14T11:37:12.675Z,325
2018-05-14T11:38:21.824Z,330
2018-05-14T11:39:31.250Z,330
2018-05-14T11:40:40.398Z,345
2018-05-14T11:41:49.615Z,385
2018-05-14T11:42:58.483Z,410
2018-05-14T11:44:07.351Z,415
2018-05-14T11:45:16.220Z,425
2018-05-14T11:46:25.088Z,445
2018-05-14T11:47:34.107Z,480
2018-05-14T11:48:42.973Z,470
2018-05-14T11:49:51.840Z,455
2018-05-14T11:51:00.710Z,1370
2018-05-14T11:52:09.873Z,2615
2018-05-14T11:53:19.088Z,2725
2018-05-14T11:54:28.239Z,2780
2018-05-14T11:55:37.109Z,2810
2018-05-14T11:56:46.386Z,3125
2018-05-14T11:57:55.428Z,420
2018-05-14T11:59:04.614Z,2965
2018-05-14T12:00:13.485Z,2800
2018-05-14T12:01:22.647Z,2865
2018-05-14T12:02:31.512Z,2935
2018-05-14T12:03:40.385Z,2845
2018-05-14T12:04:49.685Z,705
2018-05-14T12:05:58.834Z,3225
2018-05-14T12:07:07.982Z,2550
2018-05-14T12:08:16.862Z,2525
2018-05-14T12:09:25.728Z,1165
2018-05-14T12:10:34.754Z,405
2018-05-14T12:11:43.626Z,375
2018-05-14T12:12:52.781Z,350
2018-05-14T12:14:01.657Z,365
2018-05-14T12:15:10.524Z,2940
2018-05-14T12:16:19.982Z,2920
2018-05-14T12:17:29.132Z,3155
2018-05-14T12:18:38.006Z,3225
2018-05-14T12:19:46.877Z,3305
2018-05-14T12:20:55.754Z,3280
2018-05-14T12:22:04.770Z,3200
2018-05-14T12:23:13.642Z,3205
2018-05-14T12:24:22.809Z,3450
2018-05-14T12:25:31.693Z,1090
2018-05-14T12:26:40.572Z,495
2018-05-14T12:27:49.545Z,510
2018-05-14T12:28:58.419Z,445
2018-05-14T12:30:07.290Z,570
2018-05-14T12:31:16.164Z,3135
2018-05-14T12:32:25.038Z,615
2018-05-14T12:33:33.914Z,3270
2018-05-14T12:34:43.078Z,3335
2018-05-14T12:35:52.512Z,3630
2018-05-14T12:37:01.386Z,3325
2018-05-14T12:38:10.546Z,3295
2018-05-14T12:39:19.473Z,3280
2018-05-14T12:40:28.353Z,885
2018-05-14T12:41:37.506Z,3180
2018-05-14T12:42:46.381Z,3415
2018-05-14T12:43:55.256Z,3195
2018-05-14T12:45:04.242Z,2365
2018-05-14T12:46:13.428Z,415
2018-05-14T12:47:22.676Z,415
2018-05-14T12:48:31.549Z,430
2018-05-14T12:49:40.424Z,690
2018-05-14T12:50:49.451Z,3435
2018-05-14T12:51:59.652Z,3345
2018-05-14T12:53:08.729Z,2745
2018-05-14T12:54:17.879Z,2245
2018-05-14T12:55:26.760Z,1410
2018-05-14T12:56:36.132Z,3485
2018-05-14T12:57:45.012Z,3575
2018-05-14T12:58:53.886Z,3530
2018-05-14T13:00:03.044Z,3615
2018-05-14T13:01:12.197Z,3460
2018-05-14T13:02:21.221Z,3530
2018-05-14T13:03:30.100Z,3545
2018-05-14T13:04:38.978Z,3515
2018-05-14T13:05:47.855Z,920
2018-05-14T13:06:56.778Z,3930
2018-05-14T13:08:05.711Z,1590
2018-05-14T13:09:14.590Z,3545
2018-05-14T13:10:23.747Z,3405
2018-05-14T13:11:32.626Z,810
2018-05-14T13:12:41.505Z,680
2018-05-14T13:13:50.951Z,3510
2018-05-14T13:14:59.828Z,3345
2018-05-14T13:16:08.707Z,3380
2018-05-14T13:17:17.873Z,3285
2018-05-14T13:18:26.753Z,985
2018-05-14T13:19:36.012Z,760
2018-05-14T13:20:44.889Z,3095
2018-05-14T13:21:53.766Z,2975
2018-05-14T13:23:02.642Z,1015
2018-05-14T13:24:11.519Z,525
2018-05-14T13:25:20.544Z,470
2018-05-14T13:26:29.425Z,460
2018-05-14T13:27:38.398Z,465
2018-05-14T13:28:47.288Z,470
2018-05-14T13:29:56.450Z,465
2018-05-14T13:31:05.655Z,445
2018-05-14T13:32:14.921Z,425
2018-05-14T13:33:23.796Z,400
2018-05-14T13:34:32.951Z,385
2018-05-14T13:35:41.828Z,375
2018-05-14T13:36:51.030Z,375
2018-05-14T13:38:00.347Z,365
2018-05-14T13:39:09.180Z,370
2018-05-14T13:40:18.332Z,395
2018-05-14T13:41:27.204Z,420
2018-05-14T13:42:36.401Z,460
2018-05-14T13:43:45.550Z,510
2018-05-14T13:44:54.706Z,575
2018-05-14T13:46:03.857Z,710
2018-05-14T13:47:12.728Z,3285
2018-05-14T13:48:21.755Z,3465
2018-05-14T13:49:30.903Z,3315
2018-05-14T13:50:39.773Z,3355
2018-05-14T13:51:48.925Z,3380
2018-05-14T13:52:57.801Z,3365
2018-05-14T13:54:06.771Z,3415
2018-05-14T13:55:16.197Z,3620
2018-05-14T13:56:25.073Z,3695
2018-05-14T13:57:33.948Z,3450
2018-05-14T13:58:43.107Z,3345
2018-05-14T13:59:52.343Z,3305
2018-05-14T14:01:01.550Z,3350
2018-05-14T14:02:10.433Z,3165
2018-05-14T14:03:19.864Z,2210
2018-05-14T14:04:29.022Z,3210
2018-05-14T14:05:37.902Z,3120
2018-05-14T14:06:46.781Z,3040
2018-05-14T14:07:55.661Z,3130
2018-05-14T14:09:04.547Z,3125
2018-05-14T14:10:13.421Z,3175
2018-05-14T14:11:22.491Z,3040
2018-05-14T14:12:31.622Z,3085
2018-05-14T14:13:40.785Z,3185
2018-05-14T14:14:49.958Z,3275
2018-05-14T14:15:58.828Z,3320
2018-05-14T14:17:08.256Z,3200
2018-05-14T14:18:17.412Z,3270
2018-05-14T14:19:26.852Z,3275
2018-05-14T14:20:36.103Z,3195
2018-05-14T14:21:44.984Z,2970
2018-05-14T14:22:53.971Z,3345
2018-05-14T14:24:04.137Z,3315
2018-05-14T14:25:13.903Z,2865
2018-05-14T14:26:23.063Z,2630
2018-05-14T14:27:31.946Z,3375
2018-05-14T14:28:41.085Z,3585
2018-05-14T14:29:50.418Z,3255
2018-05-14T14:30:59.528Z,2845
2018-05-14T14:32:08.412Z,925
2018-05-14T14:33:17.573Z,1975
2018-05-14T14:34:26.505Z,845
2018-05-14T14:35:35.670Z,690
2018-05-14T14:36:44.548Z,575
2018-05-14T14:37:53.436Z,505
2018-05-14T14:39:02.595Z,455
2018-05-14T14:40:11.762Z,415
2018-05-14T14:41:20.647Z,395
2018-05-14T14:42:29.526Z,375
2018-05-14T14:43:38.403Z,360
2018-05-14T14:44:47.280Z,345
2018-05-14T14:45:56.212Z,345
2018-05-14T14:47:05.087Z,355
2018-05-14T14:48:14.250Z,370
2018-05-14T14:49:23.405Z,395
2018-05-14T14:50:32.283Z,420
2018-05-14T14:51:41.207Z,440
2018-05-14T14:52:50.085Z,455
2018-05-14T14:53:58.957Z,500
2018-05-14T14:55:08.118Z,515
2018-05-14T14:56:17.273Z,570
2018-05-14T14:57:26.145Z,1825
2018-05-14T14:58:35.016Z,2790
2018-05-14T14:59:44.452Z,2950
2018-05-14T15:00:53.332Z,2875
2018-05-14T15:02:02.762Z,3030
2018-05-14T15:03:11.734Z,3000
2018-05-14T15:04:20.617Z,3040
2018-05-14T15:05:29.500Z,2905
2018-05-14T15:06:38.655Z,2820
2018-05-14T15:07:47.533Z,2800
2018-05-14T15:08:56.516Z,2445
2018-05-14T15:10:05.389Z,2595
2018-05-14T15:11:14.266Z,2800
2018-05-14T15:12:23.421Z,2785
2018-05-14T15:13:32.303Z,2725
2018-05-14T15:14:41.813Z,2800
2018-05-14T15:15:50.691Z,2835
2018-05-14T15:16:59.845Z,3025
2018-05-14T15:18:08.732Z,3010
2018-05-14T15:19:17.891Z,2835
2018-05-14T15:20:26.822Z,1340
2018-05-14T15:21:35.985Z,2275
2018-05-14T15:22:44.865Z,900
2018-05-14T15:23:54.030Z,2495
2018-05-14T15:25:02.908Z,2610
2018-05-14T15:26:11.938Z,2300
2018-05-14T15:27:20.819Z,2365
2018-05-14T15:28:30.269Z,1445
2018-05-14T15:29:39.200Z,2390
2018-05-14T15:30:48.031Z,2305
2018-05-14T15:31:57.060Z,2350
2018-05-14T15:33:05.940Z,2250
2018-05-14T15:34:14.822Z,2310
2018-05-14T15:35:23.702Z,2265
2018-05-14T15:36:32.861Z,2360
2018-05-14T15:37:41.902Z,2435
2018-05-14T15:38:51.337Z,2360
2018-05-14T15:40:00.216Z,2360
2018-05-14T15:41:09.379Z,2365
2018-05-14T15:42:18.261Z,2270
2018-05-14T15:43:27.288Z,2255
2018-05-14T15:44:36.447Z,2290
2018-05-14T15:45:45.604Z,2305
2018-05-14T15:46:54.487Z,2280
2018-05-14T15:48:03.367Z,2190
2018-05-14T15:49:12.350Z,2300
2018-05-14T15:50:21.230Z,2340
2018-05-14T15:51:30.112Z,2265
2018-05-14T15:52:38.994Z,2240
2018-05-14T15:53:47.877Z,2300
2018-05-14T15:54:56.858Z,2235
2018-05-14T15:56:05.745Z,2180
2018-05-14T15:57:14.627Z,2235
2018-05-14T15:58:23.511Z,2270
2018-05-14T15:59:32.396Z,2140
2018-05-14T16:00:41.326Z,2185